Portada
METAR-TAF:

METAR-TAF

Aeroports :

Montgomery, Alabama, Estats Units d'Amèrica

latitud: 32-18-01N, longitud: 086-24-22W, altitud: 67 m

Observació

L'informe es va fer fa 29 minuts, a les 00:53 UTC
Vent 6 kt del Oest/Sud-Oest
Temperatura 11°C
Humitat 54%
Pressió 1016 hPa
Visibilitat: 16.1 km
Cel clar

METAR: KMGM 250053Z 24006KT 10SM CLR 11/02 A3001 RMK AO2 SLP160 T01060022

Hora: 19:22 (01:22 UTC)

Pronòstic

L'informe es va fer fa 1 hora i 51 minuts, a les 23:31 UTC
Pronòstic vàlid del 25 a les 00 UTC al 25 a les 24 UTC
Vent 5 kt del Oest/Sud-Oest
Visibilitat: 10 km
Escasses núvols a una alçada de 10000 ft
A partir de les 25 a les 0300 UTC
Vent 8 kt del Oest/Nord-Oest
Visibilitat: 10 km
Escasses núvols a una alçada de 20000 ft
Temporalment
l' 25 a les 15 UTC al 25 a les 18 UTC
Cel ennuvolat a una alçada de 2500 ft

TAF: KMGM 242331Z 2500/2524 24005KT P6SM FEW100 FM250300 29008KT P6SM FEW200 TEMPO 2515/2518 BKN025

Observacions i pronòstics meteorològics de més de 4000 aeroports (METAR i TAF).

Les estacions disponibles són els punts grocs i vermells al mapa.

Posi el ratolí al punt desitjat per veure el nom de l'estació.

Feu clic per veure les observacions i els pronòstics meteorològics.

Per canviar el mapa: feu clic els botons verds amb una creu de color negre per apropar; al botó verd amb un guió per allunyar la imatge; o en les fletxes verdes per a mapes adjacents.


METAR-TAF: